Time,TemperatureF,DewpointF,PressureIn,WindDirection,WindDirectionDegrees,WindSpeedMPH,WindSpeedGustMPH,Humidity,HourlyPrecipIn,Conditions,Clouds,dailyrainin,SoftwareType,DateUTC
2013-06-03 00:00:00,68.4,66.9,29.91,South,188,0.0,0.0,95,0.05,,,0.04,Wunderground v.1.15,2013-06-03 04:00:00,
2013-06-03 00:05:00,68.6,67.1,29.91,South,188,0.0,0.0,95,0.14,,,0.01,Wunderground v.1.15,2013-06-03 04:05:00,
2013-06-03 00:10:00,68.6,67.1,29.91,South,188,0.0,0.0,95,0.14,,,0.02,Wunderground v.1.15,2013-06-03 04:10:00,
2013-06-03 00:20:00,68.6,67.1,29.90,South,188,0.0,0.0,95,0.19,,,0.05,Wunderground v.1.15,2013-06-03 04:20:00,
2013-06-03 00:25:00,68.6,67.1,29.90,South,188,0.0,0.0,95,0.12,,,0.06,Wunderground v.1.15,2013-06-03 04:25:00,
2013-06-03 00:30:00,68.6,67.4,29.90,South,188,0.0,0.0,96,0.10,,,0.06,Wunderground v.1.15,2013-06-03 04:30:00,
2013-06-03 00:35:00,68.6,67.4,29.89,South,188,0.0,0.0,96,0.09,,,0.07,Wunderground v.1.15,2013-06-03 04:35:00,
2013-06-03 00:40:00,68.6,67.4,29.89,South,188,0.0,0.0,96,0.06,,,0.07,Wunderground v.1.15,2013-06-03 04:40:00,
2013-06-03 00:45:00,68.6,67.4,29.89,South,188,0.0,0.0,96,0.06,,,0.08,Wunderground v.1.15,2013-06-03 04:45:00,
2013-06-03 00:50:00,68.8,67.6,29.89,South,188,0.0,0.0,96,0.06,,,0.08,Wunderground v.1.15,2013-06-03 04:50:00,
2013-06-03 00:55:00,68.9,67.7,29.89,South,188,0.0,0.0,96,0.04,,,0.08,Wunderground v.1.15,2013-06-03 04:55:00,
2013-06-03 01:00:00,68.9,67.7,29.89,South,188,0.0,1.0,96,0.00,,,0.08,Wunderground v.1.15,2013-06-03 05:00:00,
2013-06-03 01:05:00,69.1,67.9,29.89,South,188,0.0,1.0,96,0.00,,,0.08,Wunderground v.1.15,2013-06-03 05:05:00,
2013-06-03 01:10:00,69.1,67.9,29.88,South,188,0.0,0.0,96,0.00,,,0.09,Wunderground v.1.15,2013-06-03 05:10:00,
2013-06-03 01:15:00,69.1,68.2,29.88,South,188,0.0,1.0,97,0.00,,,0.09,Wunderground v.1.15,2013-06-03 05:15:00,
2013-06-03 01:20:00,69.1,68.2,29.88,South,188,0.0,0.0,97,0.00,,,0.09,Wunderground v.1.15,2013-06-03 05:20:00,
2013-06-03 01:25:00,69.1,68.2,29.88,South,188,0.0,0.0,97,0.00,,,0.09,Wunderground v.1.15,2013-06-03 05:25:00,
2013-06-03 01:30:00,69.1,68.2,29.89,South,188,0.0,0.0,97,0.00,,,0.09,Wunderground v.1.15,2013-06-03 05:30:00,
2013-06-03 01:35:00,69.3,68.4,29.89,South,188,0.0,1.0,97,0.00,,,0.09,Wunderground v.1.15,2013-06-03 05:35:00,
2013-06-03 01:40:00,69.3,68.4,29.89,South,188,0.0,0.0,97,0.00,,,0.09,Wunderground v.1.15,2013-06-03 05:40:00,
2013-06-03 01:45:00,69.1,68.2,29.89,South,188,0.0,0.0,97,0.00,,,0.09,Wunderground v.1.15,2013-06-03 05:45:00,
2013-06-03 01:50:00,69.1,68.2,29.89,South,188,0.0,0.0,97,0.00,,,0.09,Wunderground v.1.15,2013-06-03 05:50:00,
2013-06-03 01:55:00,68.9,68.0,29.89,South,188,0.0,0.0,97,0.00,,,0.09,Wunderground v.1.15,2013-06-03 05:55:00,
2013-06-03 02:00:00,68.4,67.2,29.88,South,188,0.0,0.0,96,0.00,,,0.09,Wunderground v.1.15,2013-06-03 06:00:00,
2013-06-03 02:10:00,67.9,66.7,29.89,South,188,0.0,0.0,96,0.00,,,0.09,Wunderground v.1.15,2013-06-03 06:10:00,
2013-06-03 02:15:00,67.8,66.6,29.89,South,188,0.0,0.0,96,0.00,,,0.09,Wunderground v.1.15,2013-06-03 06:15:00,
2013-06-03 02:20:00,67.8,66.6,29.88,South,188,0.0,0.0,96,0.00,,,0.09,Wunderground v.1.15,2013-06-03 06:20:00,
2013-06-03 02:25:00,67.8,66.6,29.88,South,188,0.0,0.0,96,0.00,,,0.09,Wunderground v.1.15,2013-06-03 06:25:00,
2013-06-03 02:30:00,67.6,66.4,29.88,South,188,0.0,0.0,96,0.00,,,0.09,Wunderground v.1.15,2013-06-03 06:30:00,
2013-06-03 02:35:00,67.6,66.4,29.88,South,188,0.0,0.0,96,0.00,,,0.09,Wunderground v.1.15,2013-06-03 06:35:00,
2013-06-03 02:40:00,67.4,66.2,29.88,South,188,0.0,0.0,96,0.00,,,0.09,Wunderground v.1.15,2013-06-03 06:40:00,
2013-06-03 02:45:00,67.4,66.2,29.88,South,188,0.0,0.0,96,0.00,,,0.09,Wunderground v.1.15,2013-06-03 06:45:00,
2013-06-03 02:50:00,67.4,66.2,29.88,South,188,0.0,0.0,96,0.00,,,0.09,Wunderground v.1.15,2013-06-03 06:50:00,
2013-06-03 02:55:00,67.4,66.2,29.88,South,188,0.0,0.0,96,0.00,,,0.09,Wunderground v.1.15,2013-06-03 06:55:00,
2013-06-03 03:00:00,67.4,66.2,29.88,South,188,0.0,0.0,96,0.00,,,0.09,Wunderground v.1.15,2013-06-03 07:00:00,
2013-06-03 03:05:00,67.4,66.2,29.88,South,188,0.0,0.0,96,0.00,,,0.09,Wunderground v.1.15,2013-06-03 07:05:00,
2013-06-03 03:10:00,67.4,66.2,29.88,South,188,0.0,0.0,96,0.00,,,0.09,Wunderground v.1.15,2013-06-03 07:10:00,
2013-06-03 03:15:00,67.4,66.2,29.88,South,188,0.0,0.0,96,0.00,,,0.09,Wunderground v.1.15,2013-06-03 07:15:00,
2013-06-03 03:20:00,67.6,66.7,29.88,South,188,0.0,0.0,97,0.00,,,0.09,Wunderground v.1.15,2013-06-03 07:20:00,
2013-06-03 03:30:00,67.4,66.5,29.87,South,188,0.0,0.0,97,0.00,,,0.09,Wunderground v.1.15,2013-06-03 07:30:00,
2013-06-03 03:35:00,67.6,66.7,29.87,South,188,0.0,0.0,97,0.00,,,0.09,Wunderground v.1.15,2013-06-03 07:35:00,
2013-06-03 03:40:00,67.6,66.7,29.87,South,188,0.0,0.0,97,0.00,,,0.09,Wunderground v.1.15,2013-06-03 07:40:00,
2013-06-03 03:45:00,67.4,66.5,29.87,South,188,0.0,0.0,97,0.00,,,0.09,Wunderground v.1.15,2013-06-03 07:45:00,
2013-06-03 03:50:00,67.4,66.5,29.87,South,188,0.0,0.0,97,0.24,,,0.10,Wunderground v.1.15,2013-06-03 07:50:00,
2013-06-03 04:00:00,67.3,66.4,29.86,South,189,0.0,0.0,97,0.56,,,0.20,Wunderground v.1.15,2013-06-03 08:00:00,
2013-06-03 04:05:00,67.1,66.2,29.87,South,189,0.0,1.0,97,0.38,,,0.24,Wunderground v.1.15,2013-06-03 08:05:00,
2013-06-03 04:10:00,67.1,66.2,29.87,South,189,0.0,0.0,97,0.30,,,0.26,Wunderground v.1.15,2013-06-03 08:10:00,
2013-06-03 04:15:00,66.9,66.0,29.86,South,189,0.0,0.0,97,0.12,,,0.27,Wunderground v.1.15,2013-06-03 08:15:00,
2013-06-03 04:20:00,66.9,66.0,29.87,South,189,0.0,0.0,97,0.11,,,0.28,Wunderground v.1.15,2013-06-03 08:20:00,
2013-06-03 04:25:00,66.9,66.0,29.87,South,189,0.0,0.0,97,0.09,,,0.29,Wunderground v.1.15,2013-06-03 08:25:00,
2013-06-03 04:30:00,66.9,66.0,29.86,South,189,0.0,0.0,97,0.08,,,0.29,Wunderground v.1.15,2013-06-03 08:30:00,
2013-06-03 04:40:00,66.9,66.0,29.86,South,189,0.0,0.0,97,0.00,,,0.29,Wunderground v.1.15,2013-06-03 08:40:00,
2013-06-03 04:45:00,66.9,66.0,29.87,South,189,0.0,0.0,97,0.33,,,0.31,Wunderground v.1.15,2013-06-03 08:45:00,
2013-06-03 04:50:00,66.9,66.0,29.87,South,189,0.0,0.0,97,0.21,,,0.33,Wunderground v.1.15,2013-06-03 08:50:00,
2013-06-03 04:55:00,66.8,65.9,29.86,South,189,0.0,0.0,97,0.30,,,0.35,Wunderground v.1.15,2013-06-03 08:55:00,
2013-06-03 05:00:00,66.8,65.9,29.86,South,189,0.0,0.0,97,0.11,,,0.36,Wunderground v.1.15,2013-06-03 09:00:00,
2013-06-03 05:05:00,66.8,65.9,29.86,South,189,0.0,0.0,97,0.10,,,0.36,Wunderground v.1.15,2013-06-03 09:05:00,
2013-06-03 05:10:00,66.8,65.9,29.87,South,189,0.0,0.0,97,0.06,,,0.36,Wunderground v.1.15,2013-06-03 09:10:00,
2013-06-03 05:15:00,66.8,65.9,29.87,South,189,0.0,0.0,97,0.26,,,0.38,Wunderground v.1.15,2013-06-03 09:15:00,
2013-06-03 05:20:00,66.8,65.9,29.87,South,189,0.0,0.0,97,0.17,,,0.39,Wunderground v.1.15,2013-06-03 09:20:00,
2013-06-03 05:25:00,66.8,65.9,29.87,South,189,0.0,0.0,97,0.07,,,0.39,Wunderground v.1.15,2013-06-03 09:25:00,
2013-06-03 05:35:00,66.6,65.7,29.86,South,189,0.0,0.0,97,0.04,,,0.40,Wunderground v.1.15,2013-06-03 09:35:00,
2013-06-03 05:40:00,66.6,65.7,29.86,South,189,0.0,0.0,97,0.04,,,0.40,Wunderground v.1.15,2013-06-03 09:40:00,
2013-06-03 05:45:00,66.6,65.7,29.86,South,189,0.0,0.0,97,0.04,,,0.40,Wunderground v.1.15,2013-06-03 09:45:00,
2013-06-03 05:50:00,66.6,65.7,29.86,South,189,0.0,0.0,97,0.00,,,0.40,Wunderground v.1.15,2013-06-03 09:50:00,
2013-06-03 05:55:00,66.6,65.7,29.86,South,189,0.0,0.0,97,0.00,,,0.41,Wunderground v.1.15,2013-06-03 09:55:00,
2013-06-03 06:00:00,66.6,65.7,29.86,South,189,0.0,1.0,97,0.21,,,0.43,Wunderground v.1.15,2013-06-03 10:00:00,
2013-06-03 06:05:00,66.6,65.7,29.86,South,189,0.0,1.0,97,0.18,,,0.44,Wunderground v.1.15,2013-06-03 10:05:00,
2013-06-03 06:10:00,66.6,65.7,29.86,South,189,0.0,0.0,97,0.19,,,0.46,Wunderground v.1.15,2013-06-03 10:10:00,
2013-06-03 06:15:00,66.6,65.7,29.86,South,189,0.0,0.0,97,0.17,,,0.47,Wunderground v.1.15,2013-06-03 10:15:00,
2013-06-03 06:20:00,66.6,65.7,29.86,South,189,0.0,0.0,97,0.13,,,0.48,Wunderground v.1.15,2013-06-03 10:20:00,
2013-06-03 06:25:00,66.8,65.9,29.86,South,189,0.0,0.0,97,0.13,,,0.49,Wunderground v.1.15,2013-06-03 10:25:00,
2013-06-03 06:30:00,66.8,66.2,29.86,South,189,0.0,0.0,98,0.08,,,0.50,Wunderground v.1.15,2013-06-03 10:30:00,
2013-06-03 06:35:00,66.8,66.2,29.86,South,189,0.0,1.0,98,0.16,,,0.51,Wunderground v.1.15,2013-06-03 10:35:00,
2013-06-03 06:40:00,66.6,66.0,29.86,SSW,192,0.0,0.0,98,0.07,,,0.51,Wunderground v.1.15,2013-06-03 10:40:00,
2013-06-03 06:45:00,66.6,66.0,29.87,SSW,192,0.0,1.0,98,0.07,,,0.52,Wunderground v.1.15,2013-06-03 10:45:00,
2013-06-03 06:50:00,66.6,66.0,29.86,SSW,192,0.0,0.0,98,0.06,,,0.52,Wunderground v.1.15,2013-06-03 10:50:00,
2013-06-03 06:55:00,66.6,66.0,29.86,SSW,192,0.0,0.0,98,0.04,,,0.52,Wunderground v.1.15,2013-06-03 10:55:00,
2013-06-03 07:00:00,66.8,66.2,29.86,SSW,192,0.0,0.0,98,0.00,,,0.52,Wunderground v.1.15,2013-06-03 11:00:00,
2013-06-03 07:05:00,66.8,66.2,29.87,SSW,192,0.0,0.0,98,0.00,,,0.52,Wunderground v.1.15,2013-06-03 11:05:00,
2013-06-03 07:10:00,66.8,66.2,29.86,SSW,192,0.0,0.0,98,0.00,,,0.52,Wunderground v.1.15,2013-06-03 11:10:00,
2013-06-03 07:15:00,66.8,66.2,29.87,SSW,192,0.0,0.0,98,0.00,,,0.52,Wunderground v.1.15,2013-06-03 11:15:00,
2013-06-03 07:20:00,66.9,66.3,29.87,SSW,192,0.0,0.0,98,0.00,,,0.52,Wunderground v.1.15,2013-06-03 11:20:00,
2013-06-03 07:25:00,66.9,66.3,29.87,SSW,192,0.0,0.0,98,0.00,,,0.52,Wunderground v.1.15,2013-06-03 11:25:00,
2013-06-03 07:30:00,66.9,66.3,29.88,SSW,192,0.0,0.0,98,0.00,,,0.52,Wunderground v.1.15,2013-06-03 11:30:00,
2013-06-03 07:35:00,66.9,66.3,29.88,SSW,193,0.0,0.0,98,0.00,,,0.52,Wunderground v.1.15,2013-06-03 11:35:00,
2013-06-03 07:40:00,66.9,66.3,29.88,SSW,193,0.0,0.0,98,0.00,,,0.52,Wunderground v.1.15,2013-06-03 11:40:00,
2013-06-03 07:50:00,67.1,66.5,29.88,SSW,193,0.0,0.0,98,0.00,,,0.52,Wunderground v.1.15,2013-06-03 11:50:00,
2013-06-03 07:55:00,67.1,66.5,29.88,SSW,193,0.0,0.0,98,0.00,,,0.52,Wunderground v.1.15,2013-06-03 11:55:00,
2013-06-03 08:00:00,67.3,66.7,29.88,SSW,193,0.0,0.0,98,0.00,,,0.52,Wunderground v.1.15,2013-06-03 12:00:00,
2013-06-03 08:05:00,67.3,66.7,29.88,SSW,193,0.0,0.0,98,0.00,,,0.52,Wunderground v.1.15,2013-06-03 12:05:00,
2013-06-03 08:10:00,67.3,66.7,29.88,SSW,193,0.0,0.0,98,0.00,,,0.52,Wunderground v.1.15,2013-06-03 12:10:00,
2013-06-03 08:15:00,67.3,66.7,29.88,SSW,193,0.0,0.0,98,0.00,,,0.52,Wunderground v.1.15,2013-06-03 12:15:00,
2013-06-03 08:20:00,67.3,66.7,29.88,SSW,194,0.0,0.0,98,0.00,,,0.52,Wunderground v.1.15,2013-06-03 12:20:00,
2013-06-03 08:25:00,67.3,66.7,29.88,SSW,194,0.0,0.0,98,0.00,,,0.52,Wunderground v.1.15,2013-06-03 12:25:00,
2013-06-03 08:30:00,67.3,66.7,29.88,SSW,194,0.0,0.0,98,0.00,,,0.52,Wunderground v.1.15,2013-06-03 12:30:00,
2013-06-03 08:35:00,67.3,66.7,29.88,SSW,194,0.0,0.0,98,0.00,,,0.52,Wunderground v.1.15,2013-06-03 12:35:00,
2013-06-03 08:40:00,67.3,66.7,29.88,SSW,194,0.0,0.0,98,0.00,,,0.52,Wunderground v.1.15,2013-06-03 12:40:00,
2013-06-03 08:45:00,67.3,66.7,29.88,SSW,194,0.0,0.0,98,0.00,,,0.52,Wunderground v.1.15,2013-06-03 12:45:00,
2013-06-03 08:50:00,67.3,66.7,29.88,SSW,194,0.0,0.0,98,0.00,,,0.52,Wunderground v.1.15,2013-06-03 12:50:00,
2013-06-03 08:55:00,67.4,66.8,29.88,SSW,194,0.0,0.0,98,0.00,,,0.52,Wunderground v.1.15,2013-06-03 12:55:00,
2013-06-03 09:00:00,67.4,66.8,29.88,SSW,194,0.0,0.0,98,0.00,,,0.52,Wunderground v.1.15,2013-06-03 13:00:00,
2013-06-03 09:05:00,67.6,67.0,29.88,SSW,194,0.0,0.0,98,0.00,,,0.52,Wunderground v.1.15,2013-06-03 13:05:00,
2013-06-03 09:10:00,67.6,67.0,29.88,SSW,194,0.0,0.0,98,0.00,,,0.52,Wunderground v.1.15,2013-06-03 13:10:00,
2013-06-03 09:20:00,67.6,67.0,29.89,SSW,194,0.0,0.0,98,0.00,,,0.52,Wunderground v.1.15,2013-06-03 13:20:00,
2013-06-03 09:25:00,67.6,67.0,29.89,SSW,194,0.0,0.0,98,0.00,,,0.52,Wunderground v.1.15,2013-06-03 13:25:00,
2013-06-03 09:30:00,67.8,67.2,29.89,SSW,194,0.0,0.0,98,0.00,,,0.52,Wunderground v.1.15,2013-06-03 13:30:00,
2013-06-03 09:35:00,67.8,67.2,29.89,SSW,194,0.0,0.0,98,0.00,,,0.52,Wunderground v.1.15,2013-06-03 13:35:00,
2013-06-03 09:40:00,67.8,67.2,29.89,SSW,194,0.0,0.0,98,0.00,,,0.52,Wunderground v.1.15,2013-06-03 13:40:00,
2013-06-03 09:45:00,68.1,67.5,29.89,SSW,194,0.0,0.0,98,0.00,,,0.52,Wunderground v.1.15,2013-06-03 13:45:00,
2013-06-03 09:50:00,68.3,67.7,29.89,SSW,194,0.0,0.0,98,0.00,,,0.52,Wunderground v.1.15,2013-06-03 13:50:00,
2013-06-03 09:55:00,68.4,67.8,29.88,SSW,196,0.0,0.0,98,0.00,,,0.52,Wunderground v.1.15,2013-06-03 13:55:00,
2013-06-03 10:00:00,68.4,67.8,29.88,SSW,196,0.0,0.0,98,0.00,,,0.52,Wunderground v.1.15,2013-06-03 14:00:00,
2013-06-03 10:10:00,68.6,68.0,29.88,SSW,196,0.0,0.0,98,0.00,,,0.52,Wunderground v.1.15,2013-06-03 14:10:00,
2013-06-03 10:15:00,68.6,67.7,29.88,SSW,196,0.0,0.0,97,0.00,,,0.52,Wunderground v.1.15,2013-06-03 14:15:00,
2013-06-03 10:20:00,68.8,67.9,29.88,SSW,196,0.0,0.0,97,0.00,,,0.52,Wunderground v.1.15,2013-06-03 14:20:00,
2013-06-03 10:25:00,68.8,67.9,29.88,SSW,196,0.0,0.0,97,0.00,,,0.52,Wunderground v.1.15,2013-06-03 14:25:00,
2013-06-03 10:30:00,68.8,67.9,29.89,SSW,196,0.0,0.0,97,0.00,,,0.52,Wunderground v.1.15,2013-06-03 14:30:00,
2013-06-03 10:35:00,68.9,67.7,29.89,SSW,196,0.0,0.0,96,0.00,,,0.52,Wunderground v.1.15,2013-06-03 14:35:00,
2013-06-03 10:40:00,68.9,67.7,29.89,SSW,196,0.0,0.0,96,0.00,,,0.52,Wunderground v.1.15,2013-06-03 14:40:00,
2013-06-03 10:45:00,69.1,67.9,29.89,SSW,196,0.0,0.0,96,0.00,,,0.52,Wunderground v.1.15,2013-06-03 14:45:00,
2013-06-03 10:50:00,69.3,67.8,29.89,SSW,196,0.0,0.0,95,0.00,,,0.52,Wunderground v.1.15,2013-06-03 14:50:00,
2013-06-03 10:55:00,69.4,67.9,29.89,SSW,196,0.0,0.0,95,0.00,,,0.52,Wunderground v.1.15,2013-06-03 14:55:00,
2013-06-03 11:00:00,69.4,67.6,29.89,SSW,196,0.0,0.0,94,0.00,,,0.52,Wunderground v.1.15,2013-06-03 15:00:00,
2013-06-03 11:05:00,69.6,67.8,29.89,SSW,196,0.0,0.0,94,0.00,,,0.52,Wunderground v.1.15,2013-06-03 15:05:00,
2013-06-03 11:10:00,70.0,68.2,29.89,SSW,196,1.0,1.0,94,0.00,,,0.52,Wunderground v.1.15,2013-06-03 15:10:00,
2013-06-03 11:15:00,70.0,67.3,29.89,SSW,196,1.0,1.0,91,0.00,,,0.52,Wunderground v.1.15,2013-06-03 15:15:00,
2013-06-03 11:20:00,70.0,67.3,29.89,SSW,196,1.0,1.0,91,0.00,,,0.52,Wunderground v.1.15,2013-06-03 15:20:00,
2013-06-03 11:25:00,70.0,67.3,29.89,SSW,196,0.0,1.0,91,0.00,,,0.52,Wunderground v.1.15,2013-06-03 15:25:00,
2013-06-03 11:30:00,70.0,67.6,29.89,SSW,196,0.0,0.0,92,0.00,,,0.52,Wunderground v.1.15,2013-06-03 15:30:00,
2013-06-03 11:35:00,70.1,67.7,29.89,SSW,196,0.0,0.0,92,0.00,,,0.52,Wunderground v.1.15,2013-06-03 15:35:00,
2013-06-03 11:40:00,70.1,67.7,29.89,SSW,196,0.0,1.0,92,0.00,,,0.52,Wunderground v.1.15,2013-06-03 15:40:00,
2013-06-03 11:45:00,70.1,67.0,29.88,SSW,196,0.0,1.0,90,0.00,,,0.52,Wunderground v.1.15,2013-06-03 15:45:00,
2013-06-03 11:50:00,70.3,67.2,29.88,SSW,196,0.0,0.0,90,0.00,,,0.52,Wunderground v.1.15,2013-06-03 15:50:00,
2013-06-03 11:55:00,70.3,67.2,29.88,SSW,196,0.0,0.0,90,0.00,,,0.52,Wunderground v.1.15,2013-06-03 15:55:00,
2013-06-03 12:00:00,70.3,66.9,29.87,SSW,196,0.0,0.0,89,0.00,,,0.52,Wunderground v.1.15,2013-06-03 16:00:00,
2013-06-03 12:05:00,70.1,66.7,29.88,SSW,196,0.0,0.0,89,0.00,,,0.52,Wunderground v.1.15,2013-06-03 16:05:00,
2013-06-03 12:10:00,70.3,67.2,29.87,SSW,196,0.0,0.0,90,0.00,,,0.52,Wunderground v.1.15,2013-06-03 16:10:00,
2013-06-03 12:15:00,70.3,67.2,29.87,SSW,196,0.0,0.0,90,0.00,,,0.52,Wunderground v.1.15,2013-06-03 16:15:00,
2013-06-03 12:25:00,70.5,67.1,29.88,SSW,196,0.0,0.0,89,0.00,,,0.52,Wunderground v.1.15,2013-06-03 16:25:00,
2013-06-03 12:30:00,70.6,67.2,29.88,SSW,196,0.0,0.0,89,0.00,,,0.52,Wunderground v.1.15,2013-06-03 16:30:00,
2013-06-03 12:35:00,71.0,67.3,29.87,SSW,196,0.0,0.0,88,0.00,,,0.52,Wunderground v.1.15,2013-06-03 16:35:00,
2013-06-03 12:40:00,71.3,67.9,29.87,SSW,196,0.0,0.0,89,0.00,,,0.52,Wunderground v.1.15,2013-06-03 16:40:00,
2013-06-03 12:45:00,71.3,67.2,29.87,SSW,196,0.0,0.0,87,0.00,,,0.52,Wunderground v.1.15,2013-06-03 16:45:00,
2013-06-03 12:50:00,71.5,66.8,29.86,SSW,196,0.0,0.0,85,0.00,,,0.52,Wunderground v.1.15,2013-06-03 16:50:00,
2013-06-03 12:55:00,71.8,67.0,29.86,SSW,196,1.0,1.0,85,0.00,,,0.52,Wunderground v.1.15,2013-06-03 16:55:00,
2013-06-03 13:00:00,72.2,67.8,29.86,SSW,196,0.0,0.0,86,0.00,,,0.52,Wunderground v.1.15,2013-06-03 17:00:00,
2013-06-03 13:10:00,72.5,67.0,29.86,SSW,196,0.0,0.0,83,0.00,,,0.52,Wunderground v.1.15,2013-06-03 17:10:00,
2013-06-03 13:15:00,72.5,67.4,29.86,SSW,196,0.0,0.0,84,0.00,,,0.52,Wunderground v.1.15,2013-06-03 17:15:00,
2013-06-03 13:25:00,72.5,66.7,29.86,SSW,196,0.0,0.0,82,0.00,,,0.52,Wunderground v.1.15,2013-06-03 17:25:00,
2013-06-03 13:30:00,72.7,66.9,29.87,SSW,196,0.0,0.0,82,0.00,,,0.52,Wunderground v.1.15,2013-06-03 17:30:00,
2013-06-03 13:35:00,72.9,67.4,29.87,SSW,196,0.0,0.0,83,0.00,,,0.52,Wunderground v.1.15,2013-06-03 17:35:00,
2013-06-03 13:40:00,73.1,67.3,29.86,SSW,196,0.0,0.0,82,0.00,,,0.52,Wunderground v.1.15,2013-06-03 17:40:00,
2013-06-03 13:45:00,73.1,66.2,29.86,SSW,196,0.0,0.0,79,0.00,,,0.52,Wunderground v.1.15,2013-06-03 17:45:00,
2013-06-03 13:50:00,73.2,67.7,29.86,SSW,196,0.0,0.0,83,0.00,,,0.52,Wunderground v.1.15,2013-06-03 17:50:00,
2013-06-03 14:00:00,73.1,67.3,29.86,SSW,196,0.0,2.0,82,0.00,,,0.52,Wunderground v.1.15,2013-06-03 18:00:00,
2013-06-03 14:05:00,73.2,66.7,29.86,SSW,196,0.0,2.0,80,0.00,,,0.52,Wunderground v.1.15,2013-06-03 18:05:00,
2013-06-03 14:10:00,73.2,66.3,29.86,SSW,196,0.0,0.0,79,0.00,,,0.52,Wunderground v.1.15,2013-06-03 18:10:00,
2013-06-03 14:15:00,73.2,66.7,29.86,SSW,196,0.0,0.0,80,0.00,,,0.52,Wunderground v.1.15,2013-06-03 18:15:00,
2013-06-03 14:20:00,73.2,67.0,29.86,SSW,196,0.0,0.0,81,0.00,,,0.52,Wunderground v.1.15,2013-06-03 18:20:00,
2013-06-03 14:25:00,73.2,67.0,29.86,SSW,196,0.0,0.0,81,0.00,,,0.52,Wunderground v.1.15,2013-06-03 18:25:00,
2013-06-03 14:30:00,73.2,67.4,29.86,SSW,196,0.0,0.0,82,0.00,,,0.52,Wunderground v.1.15,2013-06-03 18:30:00,
2013-06-03 14:35:00,73.2,66.3,29.86,SSW,196,0.0,0.0,79,0.00,,,0.52,Wunderground v.1.15,2013-06-03 18:35:00,
2013-06-03 14:40:00,73.4,67.2,29.86,SSW,196,0.0,0.0,81,0.00,,,0.52,Wunderground v.1.15,2013-06-03 18:40:00,
2013-06-03 14:45:00,73.8,67.2,29.85,SSW,196,0.0,0.0,80,0.00,,,0.52,Wunderground v.1.15,2013-06-03 18:45:00,
2013-06-03 14:50:00,74.1,66.4,29.85,SSW,197,0.0,1.0,77,0.00,,,0.52,Wunderground v.1.15,2013-06-03 18:50:00,
2013-06-03 14:55:00,74.3,67.0,29.85,SSW,197,1.0,1.0,78,0.00,,,0.52,Wunderground v.1.15,2013-06-03 18:55:00,
2013-06-03 15:00:00,74.5,67.2,29.85,SSW,197,0.0,0.0,78,0.00,,,0.52,Wunderground v.1.15,2013-06-03 19:00:00,
2013-06-03 15:10:00,74.3,66.2,29.84,SSW,197,0.0,1.0,76,0.00,,,0.52,Wunderground v.1.15,2013-06-03 19:10:00,
2013-06-03 15:15:00,74.5,66.4,29.84,SSW,196,0.0,1.0,76,0.00,,,0.52,Wunderground v.1.15,2013-06-03 19:15:00,
2013-06-03 15:20:00,74.6,66.1,29.84,SSW,197,0.0,0.0,75,0.00,,,0.52,Wunderground v.1.15,2013-06-03 19:20:00,
2013-06-03 15:25:00,75.0,65.8,29.84,SSW,197,0.0,0.0,73,0.00,,,0.52,Wunderground v.1.15,2013-06-03 19:25:00,
2013-06-03 15:30:00,75.2,67.1,29.84,SSW,196,0.0,1.0,76,0.00,,,0.52,Wunderground v.1.15,2013-06-03 19:30:00,
2013-06-03 15:35:00,75.3,65.6,29.84,SSW,196,0.0,1.0,72,0.00,,,0.52,Wunderground v.1.15,2013-06-03 19:35:00,
2013-06-03 15:40:00,75.3,65.2,29.84,SSW,196,0.0,1.0,71,0.00,,,0.52,Wunderground v.1.15,2013-06-03 19:40:00,
2013-06-03 15:45:00,75.3,65.6,29.83,SSW,196,0.0,1.0,72,0.00,,,0.52,Wunderground v.1.15,2013-06-03 19:45:00,
2013-06-03 15:50:00,75.5,65.8,29.83,SSW,196,0.0,0.0,72,0.00,,,0.52,Wunderground v.1.15,2013-06-03 19:50:00,
2013-06-03 15:55:00,75.7,65.2,29.82,SSW,196,0.0,0.0,70,0.00,,,0.52,Wunderground v.1.15,2013-06-03 19:55:00,
2013-06-03 16:00:00,75.9,65.8,29.82,SSW,196,0.0,0.0,71,0.00,,,0.52,Wunderground v.1.15,2013-06-03 20:00:00,
2013-06-03 16:05:00,76.1,66.8,29.82,SSW,196,0.0,0.0,73,0.00,,,0.52,Wunderground v.1.15,2013-06-03 20:05:00,
2013-06-03 16:10:00,76.1,67.6,29.82,SSW,196,0.0,0.0,75,0.00,,,0.52,Wunderground v.1.15,2013-06-03 20:10:00,
2013-06-03 16:15:00,76.2,66.9,29.82,SSW,196,0.0,0.0,73,0.00,,,0.52,Wunderground v.1.15,2013-06-03 20:15:00,
2013-06-03 16:20:00,76.2,66.1,29.82,SSW,196,0.0,0.0,71,0.00,,,0.52,Wunderground v.1.15,2013-06-03 20:20:00,
2013-06-03 16:25:00,76.2,66.5,29.81,SSW,196,0.0,0.0,72,0.00,,,0.52,Wunderground v.1.15,2013-06-03 20:25:00,
2013-06-03 16:30:00,76.4,65.9,29.82,SSW,196,0.0,0.0,70,0.00,,,0.52,Wunderground v.1.15,2013-06-03 20:30:00,
2013-06-03 16:40:00,76.4,65.9,29.82,SSW,196,0.0,0.0,70,0.00,,,0.52,Wunderground v.1.15,2013-06-03 20:40:00,
2013-06-03 16:45:00,76.4,65.9,29.82,SSW,196,0.0,0.0,70,0.00,,,0.52,Wunderground v.1.15,2013-06-03 20:45:00,
2013-06-03 16:50:00,76.4,65.5,29.82,SSW,196,0.0,0.0,69,0.00,,,0.52,Wunderground v.1.15,2013-06-03 20:50:00,
2013-06-03 16:55:00,76.4,65.1,29.82,SSW,196,0.0,0.0,68,0.00,,,0.52,Wunderground v.1.15,2013-06-03 20:55:00,
2013-06-03 17:00:00,76.4,65.9,29.83,SSW,201,0.0,2.0,70,0.00,,,0.52,Wunderground v.1.15,2013-06-03 21:00:00,
2013-06-03 17:10:00,74.5,62.8,29.84,North,360,2.0,2.0,67,0.00,,,0.52,Wunderground v.1.15,2013-06-03 21:10:00,
2013-06-03 17:15:00,73.1,63.1,29.84,North,5,2.0,3.0,71,0.00,,,0.52,Wunderground v.1.15,2013-06-03 21:15:00,
2013-06-03 17:20:00,71.7,63.7,29.85,North,5,2.0,2.0,76,0.00,,,0.53,Wunderground v.1.15,2013-06-03 21:20:00,
2013-06-03 17:25:00,70.3,64.2,29.84,North,5,2.0,2.0,81,0.44,,,0.58,Wunderground v.1.15,2013-06-03 21:25:00,
2013-06-03 17:30:00,68.9,63.9,29.85,North,5,1.0,1.0,84,0.18,,,0.60,Wunderground v.1.15,2013-06-03 21:30:00,
2013-06-03 17:40:00,67.4,63.7,29.85,North,5,0.0,0.0,88,0.24,,,0.71,Wunderground v.1.15,2013-06-03 21:40:00,
2013-06-03 17:45:00,67.3,64.3,29.85,North,5,0.0,0.0,90,0.10,,,0.71,Wunderground v.1.15,2013-06-03 21:45:00,
2013-06-03 17:50:00,67.1,64.1,29.85,North,5,0.0,0.0,90,0.06,,,0.71,Wunderground v.1.15,2013-06-03 21:50:00,
2013-06-03 18:00:00,66.9,64.2,29.85,North,5,0.0,0.0,91,0.04,,,0.72,Wunderground v.1.15,2013-06-03 22:00:00,
2013-06-03 18:05:00,66.9,64.5,29.85,North,5,0.0,0.0,92,0.04,,,0.72,Wunderground v.1.15,2013-06-03 22:05:00,
2013-06-03 18:10:00,66.9,64.5,29.86,North,5,0.0,0.0,92,0.04,,,0.72,Wunderground v.1.15,2013-06-03 22:10:00,
2013-06-03 18:15:00,66.8,64.4,29.85,North,5,0.0,0.0,92,0.00,,,0.72,Wunderground v.1.15,2013-06-03 22:15:00,
2013-06-03 18:25:00,66.8,64.7,29.85,North,5,0.0,0.0,93,0.00,,,0.72,Wunderground v.1.15,2013-06-03 22:25:00,
2013-06-03 18:30:00,66.6,64.5,29.85,North,5,0.0,0.0,93,0.00,,,0.72,Wunderground v.1.15,2013-06-03 22:30:00,
2013-06-03 18:35:00,66.6,64.5,29.85,North,5,0.0,0.0,93,0.00,,,0.72,Wunderground v.1.15,2013-06-03 22:35:00,
2013-06-03 18:40:00,66.4,64.3,29.85,North,5,0.0,0.0,93,0.00,,,0.72,Wunderground v.1.15,2013-06-03 22:40:00,
2013-06-03 18:45:00,66.4,64.6,29.85,North,5,0.0,0.0,94,0.00,,,0.72,Wunderground v.1.15,2013-06-03 22:45:00,
2013-06-03 18:50:00,66.4,64.6,29.85,North,5,0.0,0.0,94,0.00,,,0.72,Wunderground v.1.15,2013-06-03 22:50:00,
2013-06-03 19:00:00,66.4,64.6,29.85,North,5,0.0,0.0,94,0.00,,,0.72,Wunderground v.1.15,2013-06-03 23:00:00,
2013-06-03 19:05:00,66.3,64.5,29.85,North,5,0.0,0.0,94,0.00,,,0.72,Wunderground v.1.15,2013-06-03 23:05:00,
2013-06-03 19:10:00,66.3,64.5,29.86,North,5,0.0,0.0,94,0.00,,,0.72,Wunderground v.1.15,2013-06-03 23:10:00,
2013-06-03 19:15:00,66.3,64.5,29.86,North,5,0.0,0.0,94,0.00,,,0.72,Wunderground v.1.15,2013-06-03 23:15:00,
2013-06-03 19:20:00,66.3,64.5,29.86,North,5,0.0,0.0,94,0.00,,,0.72,Wunderground v.1.15,2013-06-03 23:20:00,
2013-06-03 19:30:00,66.1,64.6,29.87,North,5,0.0,0.0,95,0.00,,,0.72,Wunderground v.1.15,2013-06-03 23:30:00,
2013-06-03 19:35:00,66.1,64.3,29.87,North,5,0.0,0.0,94,0.00,,,0.72,Wunderground v.1.15,2013-06-03 23:35:00,
2013-06-03 19:40:00,65.9,64.4,29.87,North,5,0.0,0.0,95,0.00,,,0.72,Wunderground v.1.15,2013-06-03 23:40:00,
2013-06-03 19:45:00,65.9,64.1,29.87,North,5,0.0,0.0,94,0.00,,,0.72,Wunderground v.1.15,2013-06-03 23:45:00,
2013-06-03 19:50:00,65.9,64.4,29.87,North,5,0.0,0.0,95,0.00,,,0.72,Wunderground v.1.15,2013-06-03 23:50:00,
2013-06-03 19:55:00,65.8,64.3,29.87,North,5,0.0,0.0,95,0.00,,,0.72,Wunderground v.1.15,2013-06-03 23:55:00,
2013-06-03 20:05:00,65.9,64.4,29.86,North,5,0.0,0.0,95,0.00,,,0.72,Wunderground v.1.15,2013-06-04 00:05:00,
2013-06-03 20:10:00,65.9,64.4,29.86,North,5,0.0,0.0,95,0.00,,,0.72,Wunderground v.1.15,2013-06-04 00:10:00,
2013-06-03 20:20:00,65.9,64.4,29.86,WNW,293,0.0,0.0,95,0.00,,,0.72,Wunderground v.1.15,2013-06-04 00:20:00,
2013-06-03 20:30:00,65.8,64.3,29.87,West,280,0.0,0.0,95,0.00,,,0.72,Wunderground v.1.15,2013-06-04 00:30:00,
2013-06-03 20:35:00,65.8,64.6,29.87,West,279,0.0,0.0,96,0.00,,,0.72,Wunderground v.1.15,2013-06-04 00:35:00,
2013-06-03 20:40:00,65.8,64.6,29.87,West,280,0.0,0.0,96,0.00,,,0.72,Wunderground v.1.15,2013-06-04 00:40:00,
2013-06-03 20:45:00,65.8,64.6,29.88,West,280,0.0,0.0,96,0.00,,,0.72,Wunderground v.1.15,2013-06-04 00:45:00,
2013-06-03 20:50:00,65.6,64.4,29.88,West,280,0.0,0.0,96,0.00,,,0.72,Wunderground v.1.15,2013-06-04 00:50:00,
2013-06-03 20:55:00,65.6,64.4,29.88,West,279,0.0,0.0,96,0.00,,,0.72,Wunderground v.1.15,2013-06-04 00:55:00,
2013-06-03 21:00:00,65.4,64.2,29.88,West,280,0.0,0.0,96,0.00,,,0.72,Wunderground v.1.15,2013-06-04 01:00:00,
2013-06-03 21:05:00,65.3,64.1,29.88,West,280,0.0,0.0,96,0.00,,,0.72,Wunderground v.1.15,2013-06-04 01:05:00,
2013-06-03 21:10:00,65.3,64.1,29.89,West,280,0.0,0.0,96,0.00,,,0.72,Wunderground v.1.15,2013-06-04 01:10:00,
2013-06-03 21:15:00,65.3,64.1,29.89,West,280,0.0,0.0,96,0.00,,,0.72,Wunderground v.1.15,2013-06-04 01:15:00,
2013-06-03 21:25:00,65.1,63.9,29.90,West,280,0.0,0.0,96,0.00,,,0.72,Wunderground v.1.15,2013-06-04 01:25:00,
2013-06-03 21:30:00,65.1,63.9,29.90,West,280,0.0,0.0,96,0.00,,,0.72,Wunderground v.1.15,2013-06-04 01:30:00,
2013-06-03 21:40:00,64.9,63.7,29.90,West,280,0.0,0.0,96,0.00,,,0.72,Wunderground v.1.15,2013-06-04 01:40:00,
2013-06-03 21:50:00,64.6,63.4,29.91,West,280,0.0,0.0,96,0.00,,,0.72,Wunderground v.1.15,2013-06-04 01:50:00,
2013-06-03 21:55:00,64.6,63.4,29.91,West,280,0.0,0.0,96,0.00,,,0.72,Wunderground v.1.15,2013-06-04 01:55:00,
2013-06-03 22:00:00,64.8,63.6,29.92,West,280,0.0,0.0,96,0.00,,,0.72,Wunderground v.1.15,2013-06-04 02:00:00,
2013-06-03 22:05:00,64.8,63.6,29.92,West,280,0.0,0.0,96,0.00,,,0.72,Wunderground v.1.15,2013-06-04 02:05:00,
2013-06-03 22:10:00,64.8,63.6,29.92,West,280,0.0,0.0,96,0.00,,,0.72,Wunderground v.1.15,2013-06-04 02:10:00,
2013-06-03 22:15:00,64.8,63.6,29.92,West,280,0.0,0.0,96,0.00,,,0.72,Wunderground v.1.15,2013-06-04 02:15:00,
2013-06-03 22:20:00,64.8,63.6,29.92,West,280,0.0,0.0,96,0.00,,,0.72,Wunderground v.1.15,2013-06-04 02:20:00,
2013-06-03 22:25:00,64.8,63.6,29.92,West,279,0.0,0.0,96,0.00,,,0.72,Wunderground v.1.15,2013-06-04 02:25:00,
2013-06-03 22:35:00,64.6,63.4,29.92,West,280,0.0,0.0,96,0.00,,,0.72,Wunderground v.1.15,2013-06-04 02:35:00,
2013-06-03 22:40:00,64.8,63.9,29.93,West,280,0.0,0.0,97,0.00,,,0.72,Wunderground v.1.15,2013-06-04 02:40:00,
2013-06-03 22:45:00,64.8,63.9,29.93,West,280,0.0,0.0,97,0.00,,,0.72,Wunderground v.1.15,2013-06-04 02:45:00,
2013-06-03 22:50:00,64.8,63.9,29.93,West,280,0.0,0.0,97,0.00,,,0.72,Wunderground v.1.15,2013-06-04 02:50:00,
2013-06-03 22:55:00,64.9,64.0,29.93,West,280,0.0,0.0,97,0.00,,,0.72,Wunderground v.1.15,2013-06-04 02:55:00,
2013-06-03 23:00:00,65.1,64.2,29.93,West,280,0.0,0.0,97,0.00,,,0.72,Wunderground v.1.15,2013-06-04 03:00:00,
2013-06-03 23:05:00,65.1,64.2,29.94,West,280,0.0,0.0,97,0.00,,,0.72,Wunderground v.1.15,2013-06-04 03:05:00,
2013-06-03 23:10:00,65.1,64.2,29.94,West,280,0.0,0.0,97,0.00,,,0.72,Wunderground v.1.15,2013-06-04 03:10:00,
2013-06-03 23:15:00,65.1,64.2,29.94,West,280,0.0,0.0,97,0.00,,,0.72,Wunderground v.1.15,2013-06-04 03:15:00,
2013-06-03 23:20:00,65.1,64.2,29.94,West,279,0.0,0.0,97,0.00,,,0.72,Wunderground v.1.15,2013-06-04 03:20:00,
2013-06-03 23:25:00,65.1,64.2,29.94,West,280,0.0,0.0,97,0.00,,,0.72,Wunderground v.1.15,2013-06-04 03:25:00,
2013-06-03 23:30:00,65.1,64.2,29.94,West,279,0.0,0.0,97,0.00,,,0.72,Wunderground v.1.15,2013-06-04 03:30:00,
2013-06-03 23:35:00,65.1,64.2,29.94,West,280,0.0,0.0,97,0.00,,,0.72,Wunderground v.1.15,2013-06-04 03:35:00,
2013-06-03 23:40:00,65.1,64.2,29.94,West,280,0.0,0.0,97,0.00,,,0.72,Wunderground v.1.15,2013-06-04 03:40:00,
2013-06-03 23:45:00,65.1,64.2,29.94,West,280,0.0,0.0,97,0.00,,,0.72,Wunderground v.1.15,2013-06-04 03:45:00,
2013-06-03 23:50:00,65.1,64.2,29.94,West,280,0.0,0.0,97,0.00,,,0.72,Wunderground v.1.15,2013-06-04 03:50:00,
2013-06-03 23:55:00,65.1,64.2,29.94,West,280,0.0,0.0,97,0.00,,,0.72,Wunderground v.1.15,2013-06-04 03:55:00,